Time;durP1;ratioP1;P1;durP2;ratioP2;P2;SDS_P1;SDS_P2;PMS_P1;PMS_P2;Temp;Humidity;BMP_temperature;BMP_pressure;BME280_temperature;BME280_humidity;BME280_pressure;Samples;Min_cycle;Max_cycle;Signal;HPM_P1;HPM_P2
2021/12/14 00:00:46;;;;;;;29.30;20.70;;;4.60;99.90;;;;;;5055849;28;20104;-55
2021/12/14 00:03:14;;;;;;;36.78;24.27;;;4.60;99.90;;;;;;5055620;28;20059;-51
2021/12/14 00:05:40;;;;;;;52.40;43.72;;;4.60;99.90;;;;;;5271091;22;20063;-52
2021/12/14 00:08:11;;;;;;;32.63;21.83;;;4.60;99.90;;;;;;5043024;28;20073;-47
2021/12/14 00:13:20;;;;;;;29.80;20.88;;;4.60;99.90;;;;;;5095693;28;20024;-51
2021/12/14 00:15:47;;;;;;;61.83;36.40;;;4.60;99.90;;;;;;5094812;28;20028;-50
2021/12/14 00:18:13;;;;;;;34.38;25.13;;;4.60;99.90;;;;;;5044246;28;20080;-52
2021/12/14 00:20:47;;;;;;;27.55;20.38;;;4.70;99.90;;;;;;5095159;28;20051;-51
2021/12/14 00:25:50;;;;;;;36.88;25.48;;;4.70;99.90;;;;;;5095800;28;20475;-48
2021/12/14 00:28:27;;;;;;;50.78;33.05;;;4.70;99.90;;;;;;5095424;28;20081;-51
2021/12/14 00:30:57;;;;;;;30.08;22.08;;;4.80;99.90;;;;;;5095850;28;20031;-50
2021/12/14 00:33:30;;;;;;;139.93;125.57;;;4.80;99.90;;;;;;5095552;28;20257;-53
2021/12/14 00:35:57;;;;;;;31.20;21.70;;;4.90;99.90;;;;;;5095258;28;20032;-51
2021/12/14 00:38:23;;;;;;;29.42;21.60;;;4.90;99.90;;;;;;5043444;28;20505;-54
2021/12/14 00:40:55;;;;;;;30.85;22.00;;;4.80;99.90;;;;;;5095641;28;20409;-54
2021/12/14 00:43:22;;;;;;;32.47;21.77;;;4.90;99.90;;;;;;5095961;28;20035;-55
2021/12/14 00:45:48;;;;;;;29.80;21.83;;;4.80;99.90;;;;;;5095085;28;20028;-52
2021/12/14 00:48:15;;;;;;;29.88;19.75;;;4.80;99.90;;;;;;4993594;28;20495;-48
2021/12/14 00:50:54;;;;;;;82.38;70.05;;;4.80;99.90;;;;;;5042908;28;20081;-51
2021/12/14 00:53:20;;;;;;;30.35;20.65;;;4.80;99.90;;;;;;5095040;28;20043;-48
2021/12/14 00:55:49;;;;;;;30.77;20.65;;;4.80;99.90;;;;;;5094723;28;20070;-50
2021/12/14 00:58:15;;;;;;;34.33;24.30;;;4.80;99.90;;;;;;5095018;28;20032;-50
2021/12/14 01:00:46;;;;;;;30.42;21.58;;;4.80;99.90;;;;;;5094792;28;20032;-49
2021/12/14 01:03:13;;;;;;;31.05;21.38;;;4.80;99.90;;;;;;5094929;28;20063;-50
2021/12/14 01:05:45;;;;;;;30.65;21.90;;;4.80;99.90;;;;;;5059071;28;20055;-55
2021/12/14 01:08:12;;;;;;;;;;;4.70;99.90;;;;;;5059761;28;20044;-52
2021/12/14 01:10:42;;;;;;;27.92;19.83;;;4.70;99.90;;;;;;5076128;28;19904;-51
2021/12/14 01:13:10;;;;;;;32.13;21.65;;;4.60;99.90;;;;;;5042722;28;20063;-47
2021/12/14 01:19:24;;;;;;;28.73;20.35;;;4.60;99.90;;;;;;5012542;28;20063;-52
2021/12/14 01:24:10;;;;;;;29.90;21.15;;;4.60;99.90;;;;;;4996882;28;20072;-52
2021/12/14 01:26:39;;;;;;;31.27;22.08;;;4.60;99.90;;;;;;5012336;28;20064;-53
2021/12/14 01:29:09;;;;;;;28.33;21.45;;;4.50;99.90;;;;;;5012185;28;20054;-52
2021/12/14 01:31:38;;;;;;;28.33;21.33;;;4.60;99.90;;;;;;5012288;28;20029;-50
2021/12/14 01:34:08;;;;;;;30.67;22.15;;;4.60;99.90;;;;;;5011644;28;20034;-51
2021/12/14 01:41:51;;;;;;;26.95;19.33;;;4.60;99.90;;;;;;5010804;28;20105;-48
2021/12/14 01:44:17;;;;;;;27.77;19.55;;;4.60;99.90;;;;;;5012161;28;20030;-52
2021/12/14 01:46:53;;;;;;;31.83;21.77;;;4.50;99.90;;;;;;5011955;28;20028;-49
2021/12/14 01:49:23;;;;;;;27.05;20.50;;;4.40;99.90;;;;;;5011898;28;20042;-52
2021/12/14 01:51:52;;;;;;;27.40;19.77;;;4.40;99.90;;;;;;5011831;28;20026;-48
2021/12/14 01:54:22;;;;;;;28.90;21.27;;;4.40;99.90;;;;;;5011252;28;20040;-51
2021/12/14 01:56:51;;;;;;;30.48;21.45;;;4.40;99.90;;;;;;5094230;28;20073;-47
2021/12/14 01:59:23;;;;;;;27.98;21.70;;;4.30;99.90;;;;;;5041775;28;20035;-52
2021/12/14 02:01:57;;;;;;;28.52;20.33;;;4.30;99.90;;;;;;5073212;28;20063;-52
2021/12/14 02:04:26;;;;;;;28.60;21.08;;;4.20;99.90;;;;;;5073458;28;20056;-52
2021/12/14 02:06:58;;;;;;;25.65;19.30;;;4.20;99.90;;;;;;5070696;28;20111;-54
2021/12/14 02:09:27;;;;;;;29.77;20.77;;;4.20;99.90;;;;;;5073514;28;20050;-51
2021/12/14 02:11:55;;;;;;;26.67;19.95;;;4.10;99.90;;;;;;5054709;28;20041;-49
2021/12/14 02:14:23;;;;;;;30.20;19.75;;;4.10;99.90;;;;;;5088232;28;20082;-52
2021/12/14 02:17:00;;;;;;;29.60;21.70;;;4.10;99.90;;;;;;5093403;28;20058;-52
2021/12/14 02:19:26;;;;;;;26.92;19.05;;;4.10;99.90;;;;;;5093605;28;20020;-50
2021/12/14 02:21:54;;;;;;;28.00;19.70;;;4.10;99.90;;;;;;5093655;28;20039;-50
2021/12/14 02:24:22;;;;;;;29.05;21.08;;;4.10;99.90;;;;;;5093780;28;20073;-53
2021/12/14 02:26:50;;;;;;;27.80;19.35;;;4.20;99.90;;;;;;5093516;28;20104;-51
2021/12/14 02:29:27;;;;;;;29.80;21.30;;;4.30;99.90;;;;;;5093583;28;20031;-47
2021/12/14 02:32:00;;;;;;;28.25;19.58;;;4.20;99.90;;;;;;5093340;28;20027;-50
2021/12/14 02:34:26;;;;;;;29.23;21.75;;;4.20;99.90;;;;;;5058086;28;20115;-51
2021/12/14 02:36:52;;;;;;;28.13;20.40;;;4.20;99.90;;;;;;5093295;28;20051;-53
2021/12/14 02:42:08;;;;;;;21.73;16.08;;;4.10;99.90;;;;;;5093254;28;20020;-49
2021/12/14 02:44:35;;;;;;;21.70;15.13;;;4.20;99.90;;;;;;5060271;28;20040;-48
2021/12/14 02:47:09;;;;;;;25.55;17.90;;;4.10;99.90;;;;;;5097646;28;20028;-49
2021/12/14 02:49:36;;;;;;;27.77;20.38;;;4.10;99.90;;;;;;5097354;28;20040;-49
2021/12/14 02:52:24;;;;;;;26.52;18.60;;;4.00;99.90;;;;;;5097273;28;20028;-49
2021/12/14 02:54:57;;;;;;;28.13;19.48;;;4.00;99.90;;;;;;5097755;28;20463;-52
2021/12/14 02:57:30;;;;;;;28.52;20.15;;;4.00;99.90;;;;;;5028704;28;20036;-51
2021/12/14 02:59:56;;;;;;;25.98;17.88;;;4.00;99.90;;;;;;5097206;28;20024;-52
2021/12/14 03:02:26;;;;;;;25.88;19.33;;;4.10;99.90;;;;;;5097145;28;20020;-51
2021/12/14 03:04:59;;;;;;;21.23;15.93;;;4.10;99.90;;;;;;5097266;28;20121;-49
2021/12/14 03:07:30;;;;;;;27.20;19.33;;;4.10;99.90;;;;;;5097142;28;20433;-50
2021/12/14 03:10:07;;;;;;;26.75;19.95;;;4.10;99.90;;;;;;5061751;28;20032;-51
2021/12/14 03:12:36;;;;;;;30.00;21.65;;;4.20;99.90;;;;;;5096625;28;20107;-47
2021/12/14 03:15:13;;;;;;;29.30;20.73;;;4.20;99.90;;;;;;5096932;28;20036;-54
2021/12/14 03:17:42;;;;;;;27.17;20.02;;;4.20;99.90;;;;;;5097124;28;20016;-51
2021/12/14 03:20:19;;;;;;;27.33;20.50;;;4.20;99.90;;;;;;5097155;28;20551;-51
2021/12/14 03:23:23;;;;;;;27.88;19.55;;;4.30;99.90;;;;;;5094494;28;20379;-57
2021/12/14 03:25:52;;;;;;;29.17;21.48;;;4.20;99.90;;;;;;5017839;28;20059;-51
2021/12/14 03:28:20;;;;;;;26.55;20.40;;;4.30;99.90;;;;;;5034277;28;20382;-49
2021/12/14 03:30:46;;;;;;;25.38;19.27;;;4.30;99.90;;;;;;5034296;28;20116;-52
2021/12/14 03:33:18;;;;;;;27.88;21.08;;;4.30;99.90;;;;;;5034291;28;20113;-50
2021/12/14 03:35:48;;;;;;;28.70;19.80;;;4.40;99.90;;;;;;5032228;28;20041;-47
2021/12/14 03:38:46;;;;;;;27.08;18.65;;;4.40;99.90;;;;;;5031403;28;20421;-54
2021/12/14 03:41:20;;;;;;;24.58;18.02;;;4.40;99.90;;;;;;5033909;28;20037;-57
2021/12/14 03:44:06;;;;;;;25.52;18.83;;;4.30;99.90;;;;;;5034089;28;20032;-50
2021/12/14 03:46:36;;;;;;;26.58;19.08;;;4.30;99.90;;;;;;5033897;28;20029;-50
2021/12/14 03:49:05;;;;;;;25.45;18.98;;;4.50;99.90;;;;;;5034082;28;20045;-54
2021/12/14 03:51:31;;;;;;;27.15;20.38;;;4.50;99.90;;;;;;5017551;28;20107;-51
2021/12/14 03:53:57;;;;;;;26.17;19.13;;;4.60;99.90;;;;;;5033887;28;20080;-52
2021/12/14 03:56:24;;;;;;;27.10;19.63;;;4.60;99.90;;;;;;5033030;28;20029;-55
2021/12/14 03:58:51;;;;;;;27.42;19.65;;;4.50;99.90;;;;;;5033801;28;20021;-54
2021/12/14 04:01:21;;;;;;;25.25;19.23;;;4.60;99.90;;;;;;5061946;28;20368;-55
2021/12/14 04:03:50;;;;;;;29.35;20.55;;;4.60;99.90;;;;;;5060642;28;20038;-56
2021/12/14 04:06:17;;;;;;;27.40;20.10;;;4.50;99.90;;;;;;5077021;28;20075;-52
2021/12/14 04:08:43;;;;;;;28.27;21.17;;;4.50;99.90;;;;;;5096207;28;20036;-50
2021/12/14 04:11:10;;;;;;;26.25;20.15;;;4.50;99.90;;;;;;5095779;28;20028;-55
2021/12/14 04:13:40;;;;;;;26.92;19.92;;;4.40;99.90;;;;;;5076933;28;20490;-56
2021/12/14 04:16:08;;;;;;;28.55;21.48;;;4.50;99.90;;;;;;5077176;28;20036;-57
2021/12/14 04:18:34;;;;;;;33.78;23.80;;;4.40;99.90;;;;;;5096190;28;20028;-50
2021/12/14 04:21:00;;;;;;;32.95;21.25;;;4.30;99.90;;;;;;5095886;28;20024;-51
2021/12/14 04:23:32;;;;;;;33.15;20.30;;;4.00;99.90;;;;;;5095199;28;20031;-52
2021/12/14 04:26:00;;;;;;;91.20;76.03;;;4.00;99.90;;;;;;5095773;28;20475;-53
2021/12/14 04:28:32;;;;;;;213.57;196.13;;;4.00;99.90;;;;;;5095446;28;20055;-49
2021/12/14 04:30:58;;;;;;;36.15;23.75;;;3.90;99.90;;;;;;5077027;28;20032;-50
2021/12/14 04:33:30;;;;;;;35.90;24.35;;;4.00;99.90;;;;;;5095616;28;20024;-53
2021/12/14 04:35:57;;;;;;;37.95;24.20;;;4.00;99.90;;;;;;5095572;28;20028;-56
2021/12/14 04:38:31;;;;;;;35.40;22.52;;;3.80;99.90;;;;;;5060180;28;20135;-52
2021/12/14 04:52:13;;;;;;;43.30;20.58;;;3.50;99.90;;;;;;5053081;28;20068;-50
2021/12/14 04:54:44;;;;;;;49.95;28.30;;;3.50;99.90;;;;;;5052695;28;20037;-50
2021/12/14 04:57:21;;;;;;;39.60;22.03;;;3.40;99.90;;;;;;5052651;28;20025;-51
2021/12/14 04:59:49;;;;;;;54.20;27.90;;;3.50;99.90;;;;;;5052467;28;20032;-51
2021/12/14 05:02:21;;;;;;;45.25;21.70;;;3.50;99.90;;;;;;5052580;28;20435;-49
2021/12/14 05:04:47;;;;;;;45.38;25.77;;;3.50;99.90;;;;;;5052329;28;20049;-50
2021/12/14 05:10:00;;;;;;;35.70;22.20;;;3.40;99.90;;;;;;5052644;28;20379;-51
2021/12/14 05:12:29;;;;;;;34.92;22.20;;;3.40;99.90;;;;;;5052367;28;20025;-50
2021/12/14 05:14:55;;;;;;;38.65;23.80;;;3.40;99.90;;;;;;5035521;28;20068;-49
2021/12/14 05:17:24;;;;;;;35.63;23.83;;;3.50;99.90;;;;;;5052363;28;20563;-54
2021/12/14 05:19:52;;;;;;;45.03;25.40;;;3.60;99.90;;;;;;5068753;28;20036;-55
2021/12/14 05:22:22;;;;;;;37.30;25.00;;;3.60;99.90;;;;;;5075988;28;20376;-51
2021/12/14 05:24:55;;;;;;;35.17;21.40;;;3.70;99.90;;;;;;5094616;28;20078;-47
2021/12/14 05:27:29;;;;;;;30.35;19.23;;;3.80;99.90;;;;;;5091912;28;20388;-51
2021/12/14 05:30:07;;;;;;;25.35;17.63;;;3.70;99.90;;;;;;5094604;28;20024;-46
2021/12/14 05:32:32;;;;;;;37.95;23.70;;;3.70;99.90;;;;;;5094529;28;20031;-53
2021/12/14 05:34:58;;;;;;;36.85;23.73;;;3.60;99.90;;;;;;5094350;28;20024;-50
2021/12/14 05:37:29;;;;;;;33.75;22.15;;;3.60;99.90;;;;;;5094110;28;20038;-50
2021/12/14 05:40:00;;;;;;;27.05;18.88;;;3.60;99.90;;;;;;5094580;28;20051;-54
2021/12/14 05:45:17;;;;;;;52.83;35.15;;;3.50;99.90;;;;;;5094367;28;20189;-56
2021/12/14 05:47:52;;;;;;;37.90;24.80;;;3.40;99.90;;;;;;5094230;28;20391;-51
2021/12/14 05:50:30;;;;;;;37.33;23.42;;;3.50;99.90;;;;;;5094336;28;20020;-50
2021/12/14 05:52:57;;;;;;;47.90;23.27;;;3.50;99.90;;;;;;5058619;28;20479;-53
2021/12/14 05:55:26;;;;;;;80.50;26.48;;;3.50;99.90;;;;;;5093909;28;20062;-51
2021/12/14 05:57:54;;;;;;;78.45;26.15;;;3.40;99.90;;;;;;5093998;28;20058;-49
2021/12/14 06:00:20;;;;;;;93.20;25.67;;;3.30;99.90;;;;;;5093729;28;20439;-55
2021/12/14 06:02:47;;;;;;;109.30;30.98;;;3.20;99.90;;;;;;5093680;28;20055;-51
2021/12/14 06:05:17;;;;;;;32.78;18.77;;;3.40;99.90;;;;;;5093725;28;20052;-54
2021/12/14 06:07:43;;;;;;;43.22;23.67;;;3.20;99.90;;;;;;5093806;28;20024;-55
2021/12/14 06:10:11;;;;;;;45.08;23.77;;;3.20;99.90;;;;;;5093891;28;20031;-55
2021/12/14 06:12:41;;;;;;;105.18;28.77;;;3.10;99.90;;;;;;5094103;28;20024;-53
2021/12/14 06:15:17;;;;;;;94.38;26.58;;;2.90;99.90;;;;;;5093468;28;20043;-51
2021/12/14 06:17:43;;;;;;;137.70;27.98;;;2.90;99.90;;;;;;5093525;28;20032;-54
2021/12/14 06:20:13;;;;;;;153.88;26.60;;;2.90;99.90;;;;;;5093211;28;20028;-51
2021/12/14 06:22:41;;;;;;;148.23;23.02;;;2.80;99.90;;;;;;5093710;28;20522;-48
2021/12/14 06:25:18;;;;;;;215.43;26.73;;;2.60;99.90;;;;;;5093535;28;20524;-51
2021/12/14 06:27:46;;;;;;;113.18;19.02;;;2.60;99.90;;;;;;5093560;28;20552;-52
2021/12/14 06:30:19;;;;;;;133.57;22.58;;;2.70;99.90;;;;;;5057962;28;20044;-54
2021/12/14 06:32:59;;;;;;;285.42;31.38;;;2.70;99.90;;;;;;5090469;28;20043;-46
2021/12/14 06:35:35;;;;;;;306.63;34.50;;;2.80;99.90;;;;;;5093465;28;20020;-47
2021/12/14 06:38:24;;;;;;;204.80;29.00;;;3.00;99.90;;;;;;5090372;28;20039;-53
2021/12/14 06:41:10;;;;;;;274.48;30.67;;;3.00;99.90;;;;;;5093470;28;20035;-50
2021/12/14 06:43:52;;;;;;;47.58;10.82;;;3.10;99.90;;;;;;5057891;28;20395;-57
2021/12/14 06:46:26;;;;;;;208.50;26.45;;;2.80;99.90;;;;;;5093869;28;20485;-51
2021/12/14 06:48:59;;;;;;;193.20;28.27;;;3.00;99.90;;;;;;5049665;28;20049;-50
2021/12/14 06:51:34;;;;;;;188.77;26.42;;;3.00;99.90;;;;;;5050605;28;20033;-54
2021/12/14 06:54:11;;;;;;;215.05;28.83;;;3.00;99.90;;;;;;5048330;28;20072;-57
2021/12/14 06:56:38;;;;;;;230.25;29.73;;;3.10;99.90;;;;;;5050928;28;20396;-52
2021/12/14 06:59:13;;;;;;;157.38;22.80;;;3.20;99.90;;;;;;5050851;28;20033;-56
2021/12/14 07:01:47;;;;;;;253.27;29.30;;;3.10;99.90;;;;;;5050933;28;20037;-58
2021/12/14 07:04:16;;;;;;;93.10;21.75;;;3.20;99.90;;;;;;5050615;28;20033;-49
2021/12/14 07:06:52;;;;;;;67.78;22.33;;;3.10;99.90;;;;;;5050930;28;20037;-52
2021/12/14 07:09:27;;;;;;;38.47;18.27;;;3.10;99.90;;;;;;5048648;28;20048;-46
2021/12/14 07:12:24;;;;;;;21.33;11.30;;;3.10;99.90;;;;;;5017765;28;20044;-48
2021/12/14 07:14:53;;;;;;;35.78;17.95;;;3.00;99.90;;;;;;5050669;28;20087;-57
2021/12/14 07:17:25;;;;;;;29.63;18.48;;;3.10;99.90;;;;;;5050387;28;20098;-53
2021/12/14 07:20:03;;;;;;;37.28;23.08;;;3.20;99.90;;;;;;5034223;28;20039;-51
2021/12/14 07:22:40;;;;;;;38.88;22.00;;;3.40;99.90;;;;;;5072953;28;20540;-53
2021/12/14 07:25:25;;;;;;;40.03;24.73;;;3.40;99.90;;;;;;5072935;28;20040;-44
2021/12/14 07:27:54;;;;;;;33.55;20.48;;;3.50;99.90;;;;;;5072817;28;20459;-49
2021/12/14 07:30:32;;;;;;;25.35;16.50;;;3.30;99.90;;;;;;5072720;28;20059;-49
2021/12/14 07:33:13;;;;;;;29.80;19.85;;;3.20;99.90;;;;;;5058007;28;20041;-56
2021/12/14 07:35:55;;;;;;;37.72;24.88;;;3.20;99.90;;;;;;5076958;28;20471;-56
2021/12/14 07:38:24;;;;;;;26.63;16.50;;;3.40;99.90;;;;;;5076347;28;20436;-44
2021/12/14 07:40:59;;;;;;;31.27;21.75;;;3.40;99.90;;;;;;5076278;28;20029;-54
2021/12/14 07:43:33;;;;;;;35.17;22.55;;;3.40;99.90;;;;;;5074049;28;20025;-58
2021/12/14 07:46:00;;;;;;;34.28;22.13;;;3.40;99.90;;;;;;5076281;28;20510;-55
2021/12/14 07:48:50;;;;;;;36.33;26.40;;;3.40;99.90;;;;;;5057512;28;20044;-52
2021/12/14 07:51:19;;;;;;;36.80;26.77;;;3.60;99.90;;;;;;5057421;28;20036;-57
2021/12/14 07:53:50;;;;;;;39.83;27.17;;;3.70;99.90;;;;;;5075993;28;20067;-51
2021/12/14 07:56:27;;;;;;;34.28;26.40;;;4.00;99.90;;;;;;5075608;28;20032;-56
2021/12/14 07:58:55;;;;;;;68.78;45.53;;;4.10;99.90;;;;;;5076062;28;20100;-51
2021/12/14 08:01:21;;;;;;;54.75;35.15;;;4.30;99.90;;;;;;5075689;28;20510;-54
2021/12/14 08:03:47;;;;;;;129.45;79.38;;;4.40;99.90;;;;;;5074199;28;20051;-57
2021/12/14 08:06:14;;;;;;;312.23;166.02;;;4.40;99.90;;;;;;5020478;28;20049;-53
2021/12/14 08:08:45;;;;;;;204.63;104.00;;;4.40;99.90;;;;;;5055806;28;20044;-48
2021/12/14 08:14:11;;;;;;;55.67;33.03;;;4.50;99.90;;;;;;5055417;28;20087;-54
2021/12/14 08:16:58;;;;;;;289.25;118.55;;;4.50;99.90;;;;;;5070650;28;20048;-56
2021/12/14 08:19:43;;;;;;;130.02;58.50;;;4.40;99.90;;;;;;5055168;28;20056;-50
2021/12/14 08:22:26;;;;;;;44.67;26.92;;;4.40;99.90;;;;;;5055340;28;20053;-50
2021/12/14 08:24:52;;;;;;;49.67;27.77;;;4.40;99.90;;;;;;5055541;28;20028;-53
2021/12/14 08:27:20;;;;;;;72.35;42.00;;;4.30;99.90;;;;;;5055641;28;20079;-50
2021/12/14 08:29:53;;;;;;;55.28;33.33;;;4.20;99.90;;;;;;5055295;28;20060;-49
2021/12/14 08:32:24;;;;;;;49.33;30.88;;;4.30;99.90;;;;;;5019245;28;20448;-52
2021/12/14 08:34:52;;;;;;;43.85;28.13;;;4.50;99.90;;;;;;5055244;28;20058;-47
2021/12/14 08:37:20;;;;;;;44.90;27.80;;;4.60;99.90;;;;;;5055357;28;20059;-57
2021/12/14 08:40:01;;;;;;;47.80;30.25;;;4.50;99.90;;;;;;5054733;28;20025;-52
2021/12/14 08:45:34;;;;;;;44.45;26.00;;;4.70;99.90;;;;;;5055025;28;20024;-51
2021/12/14 08:48:02;;;;;;;52.10;28.60;;;4.60;99.90;;;;;;5054972;28;20476;-54
2021/12/14 08:50:30;;;;;;;48.55;29.02;;;4.70;99.90;;;;;;5054868;28;20380;-48
2021/12/14 08:52:57;;;;;;;49.33;27.67;;;4.80;99.90;;;;;;5055387;28;20033;-54
2021/12/14 08:55:26;;;;;;;51.53;32.72;;;4.70;99.90;;;;;;5054887;28;20063;-55
2021/12/14 08:57:52;;;;;;;49.47;26.92;;;4.90;99.90;;;;;;5057387;28;20067;-52
2021/12/14 09:00:26;;;;;;;44.60;26.80;;;4.70;99.90;;;;;;5002865;28;20086;-50
2021/12/14 09:02:58;;;;;;;43.78;27.67;;;4.70;99.90;;;;;;5054937;28;20107;-56
2021/12/14 09:05:32;;;;;;;;;;;4.80;99.90;;;;;;5079381;28;20406;-50
2021/12/14 09:07:58;;;;;;;49.22;28.25;;;4.90;99.90;;;;;;5094494;28;19980;-51
2021/12/14 09:10:27;;;;;;;40.83;25.55;;;4.90;99.90;;;;;;5094661;28;20035;-56
2021/12/14 09:12:59;;;;;;;40.92;25.95;;;4.90;99.90;;;;;;5094991;28;20025;-52
2021/12/14 09:15:37;;;;;;;44.40;25.35;;;4.90;99.90;;;;;;5095083;28;20035;-52
2021/12/14 09:18:04;;;;;;;43.15;25.08;;;4.90;99.90;;;;;;5095059;28;20093;-52
2021/12/14 09:20:45;;;;;;;39.97;25.73;;;4.80;99.90;;;;;;5094561;28;20050;-49
2021/12/14 09:23:19;;;;;;;43.58;28.17;;;4.90;99.90;;;;;;5076036;28;20035;-53
2021/12/14 09:25:46;;;;;;;41.15;27.17;;;5.00;99.90;;;;;;5094683;28;20035;-52
2021/12/14 09:28:13;;;;;;;31.67;21.08;;;5.00;99.90;;;;;;5094916;28;20466;-61
2021/12/14 09:30:46;;;;;;;36.75;23.08;;;4.90;99.90;;;;;;5094623;28;20031;-58
2021/12/14 09:33:13;;;;;;;34.95;23.38;;;4.90;99.90;;;;;;5094460;28;20111;-54
2021/12/14 09:35:40;;;;;;;32.97;21.75;;;4.90;99.90;;;;;;5056149;28;20031;-55
2021/12/14 09:38:10;;;;;;;31.02;21.23;;;4.90;99.90;;;;;;5094700;28;20070;-49
2021/12/14 09:40:42;;;;;;;36.38;25.30;;;4.90;99.90;;;;;;5058612;28;20040;-57
2021/12/14 09:43:09;;;;;;;38.55;27.02;;;4.80;99.90;;;;;;5094315;28;20050;-48
2021/12/14 09:45:42;;;;;;;35.78;23.70;;;4.80;99.90;;;;;;5094052;28;20040;-59
2021/12/14 09:48:14;;;;;;;33.40;23.25;;;5.00;99.90;;;;;;5093953;28;20035;-48
2021/12/14 09:50:42;;;;;;;44.85;24.05;;;5.00;99.90;;;;;;5094390;28;20032;-54
2021/12/14 09:53:10;;;;;;;27.50;16.50;;;5.00;99.90;;;;;;5093589;28;20060;-56
2021/12/14 09:55:39;;;;;;;28.88;17.67;;;4.80;99.90;;;;;;5093781;28;20111;-52
2021/12/14 09:58:14;;;;;;;57.22;31.00;;;4.90;99.90;;;;;;5093990;28;20035;-50
2021/12/14 10:00:47;;;;;;;80.32;37.15;;;5.00;99.90;;;;;;5093598;28;20421;-55
2021/12/14 10:03:14;;;;;;;28.42;18.48;;;5.00;99.90;;;;;;5058454;28;20067;-54
2021/12/14 10:05:53;;;;;;;33.92;19.45;;;5.00;99.90;;;;;;5093618;28;20051;-48
2021/12/14 10:08:27;;;;;;;25.45;17.38;;;5.20;99.90;;;;;;5093847;28;20032;-51
2021/12/14 10:11:04;;;;;;;27.98;18.75;;;5.40;99.90;;;;;;5093861;28;20032;-51
2021/12/14 10:13:33;;;;;;;25.80;18.05;;;5.50;99.90;;;;;;5093932;28;20051;-58
2021/12/14 10:16:01;;;;;;;27.55;17.55;;;5.60;99.90;;;;;;5074895;28;20072;-54
2021/12/14 10:18:46;;;;;;;29.27;19.65;;;5.80;99.90;;;;;;5093674;28;20032;-53
2021/12/14 10:21:27;;;;;;;25.05;18.17;;;5.60;99.90;;;;;;5093652;28;20387;-56
2021/12/14 10:23:56;;;;;;;26.17;18.67;;;5.70;99.90;;;;;;5075655;28;20093;-50
2021/12/14 10:26:23;;;;;;;31.02;21.33;;;5.70;99.90;;;;;;5093735;28;20074;-52
2021/12/14 10:28:54;;;;;;;32.97;21.10;;;5.70;99.90;;;;;;5093198;28;20040;-50
2021/12/14 10:31:27;;;;;;;37.03;23.15;;;5.80;99.90;;;;;;5093371;28;20479;-57
2021/12/14 10:33:54;;;;;;;33.78;22.20;;;5.90;99.90;;;;;;5093704;28;20028;-54
2021/12/14 10:36:31;;;;;;;40.08;27.98;;;5.80;99.90;;;;;;5093538;28;20061;-51
2021/12/14 10:44:18;;;;;;;39.13;25.08;;;6.00;99.90;;;;;;5073364;28;20090;-52
2021/12/14 10:46:49;;;;;;;39.15;24.95;;;6.00;99.90;;;;;;5072443;28;20031;-60
2021/12/14 10:49:20;;;;;;;40.63;26.98;;;6.00;99.90;;;;;;5072947;28;20049;-49
2021/12/14 10:51:48;;;;;;;30.65;21.23;;;6.10;99.90;;;;;;5054556;28;20118;-54
2021/12/14 10:54:15;;;;;;;29.10;20.88;;;6.10;99.90;;;;;;5072835;28;20029;-55
2021/12/14 10:56:53;;;;;;;33.08;23.20;;;6.10;99.90;;;;;;5072673;28;20487;-56
2021/12/14 10:59:22;;;;;;;27.17;19.83;;;6.10;99.90;;;;;;5073182;28;20024;-52
2021/12/14 11:01:50;;;;;;;23.42;16.73;;;6.10;99.90;;;;;;5073001;28;20024;-55
2021/12/14 11:04:33;;;;;;;23.42;17.38;;;6.30;99.90;;;;;;5072681;28;20052;-54
2021/12/14 11:07:01;;;;;;;24.48;18.83;;;6.70;99.90;;;;;;5076694;28;20040;-52
2021/12/14 11:09:42;;;;;;;21.58;17.30;;;7.40;99.90;;;;;;5042398;28;20048;-55
2021/12/14 11:12:28;;;;;;;23.10;15.15;;;7.80;99.90;;;;;;5076992;28;20125;-56
2021/12/14 11:14:59;;;;;;;20.30;15.32;;;8.20;99.90;;;;;;5077140;28;20505;-51
2021/12/14 11:20:20;;;;;;;20.10;15.25;;;8.50;99.90;;;;;;5076706;28;20070;-52
2021/12/14 11:23:04;;;;;;;16.83;13.48;;;;;;;;;;5074863;28;20028;-52
2021/12/14 11:25:39;;;;;;;20.50;15.82;;;8.40;99.90;;;;;;5057955;28;20124;-49
2021/12/14 11:28:09;;;;;;;24.63;18.55;;;8.20;99.90;;;;;;5076252;28;20090;-58
2021/12/14 11:30:57;;;;;;;32.80;25.02;;;8.20;99.90;;;;;;5076654;28;20024;-53
2021/12/14 11:33:29;;;;;;;24.13;18.88;;;8.10;99.90;;;;;;5076658;28;20025;-55
2021/12/14 11:36:15;;;;;;;23.23;18.67;;;7.80;99.90;;;;;;5073717;28;20059;-58
2021/12/14 11:38:48;;;;;;;22.58;17.83;;;8.00;99.90;;;;;;5041015;28;20387;-60
2021/12/14 11:41:39;;;;;;;24.02;16.83;;;8.10;99.90;;;;;;5076187;28;20048;-53
2021/12/14 11:44:05;;;;;;;19.50;15.00;;;8.10;99.90;;;;;;5057621;28;20044;-53
2021/12/14 11:46:33;;;;;;;20.48;17.08;;;8.20;99.90;;;;;;5076011;28;20070;-52
2021/12/14 11:49:03;;;;;;;23.00;18.35;;;8.40;99.90;;;;;;5076107;28;20032;-56
2021/12/14 11:51:31;;;;;;;19.30;15.75;;;8.70;99.90;;;;;;5076076;28;20032;-58
2021/12/14 11:53:59;;;;;;;22.15;16.15;;;8.50;99.90;;;;;;5040045;28;20040;-62
2021/12/14 11:56:26;;;;;;;22.98;15.95;;;8.60;99.90;;;;;;5057145;28;20036;-57
2021/12/14 11:58:56;;;;;;;19.48;16.08;;;8.30;99.90;;;;;;5076100;28;20029;-61
2021/12/14 12:01:40;;;;;;;25.08;19.77;;;8.60;99.90;;;;;;5075882;28;20021;-56
2021/12/14 12:04:10;;;;;;;30.83;24.17;;;8.60;99.90;;;;;;5075503;28;20060;-51
2021/12/14 12:09:41;;;;;;;25.90;20.17;;;8.00;99.90;;;;;;5095685;28;20062;-54
2021/12/14 12:12:13;;;;;;;23.17;18.95;;;8.00;99.90;;;;;;5095234;28;20591;-53
2021/12/14 12:14:47;;;;;;;26.27;20.10;;;8.20;99.90;;;;;;5095332;28;20363;-50
2021/12/14 12:17:34;;;;;;;23.63;18.33;;;8.30;99.90;;;;;;5094907;28;20261;-51
2021/12/14 12:20:15;;;;;;;25.30;19.33;;;8.10;99.90;;;;;;5095666;28;20026;-53
2021/12/14 12:22:44;;;;;;;22.70;18.42;;;8.20;99.90;;;;;;5095590;28;20028;-50
2021/12/14 12:25:17;;;;;;;28.05;21.50;;;8.30;99.90;;;;;;5095488;28;20031;-50
2021/12/14 12:27:50;;;;;;;23.83;18.70;;;8.70;99.90;;;;;;5095528;28;20039;-56
2021/12/14 12:30:28;;;;;;;252.50;113.00;;;8.80;99.90;;;;;;5095597;28;20085;-55
2021/12/14 12:32:54;;;;;;;75.85;47.20;;;9.10;99.90;;;;;;5095326;28;20036;-53
2021/12/14 12:35:30;;;;;;;36.15;27.17;;;9.20;99.90;;;;;;5095491;28;20074;-56
2021/12/14 12:37:59;;;;;;;47.78;30.70;;;9.20;99.90;;;;;;5076779;28;20028;-53
2021/12/14 12:40:47;;;;;;;216.93;106.57;;;8.70;99.90;;;;;;5095380;28;20099;-57
2021/12/14 12:43:16;;;;;;;32.67;23.60;;;8.50;99.90;;;;;;5095220;28;20052;-52
2021/12/14 12:45:59;;;;;;;23.77;18.88;;;8.70;99.90;;;;;;5095273;28;20024;-53
2021/12/14 12:48:44;;;;;;;23.15;18.77;;;8.70;99.90;;;;;;5076710;28;20139;-57
2021/12/14 12:51:11;;;;;;;24.23;19.50;;;8.40;99.90;;;;;;5095356;28;20383;-52
2021/12/14 12:53:37;;;;;;;23.35;18.30;;;8.40;99.90;;;;;;5095115;28;20498;-55
2021/12/14 12:56:13;;;;;;;22.10;17.15;;;8.20;99.90;;;;;;5095190;28;20028;-54
2021/12/14 12:58:45;;;;;;;31.40;24.23;;;8.00;99.90;;;;;;5095299;28;20032;-56
2021/12/14 13:01:11;;;;;;;27.13;20.33;;;8.20;99.90;;;;;;5095097;28;20036;-49
2021/12/14 13:03:42;;;;;;;34.60;25.17;;;8.20;99.90;;;;;;5094941;28;20428;-52
2021/12/14 13:06:20;;;;;;;26.40;20.83;;;8.40;99.90;;;;;;5094862;28;20123;-55
2021/12/14 13:08:51;;;;;;;41.03;28.88;;;8.40;99.90;;;;;;5094905;28;20522;-55
2021/12/14 13:11:18;;;;;;;41.08;28.90;;;8.60;99.90;;;;;;5095112;28;20024;-52
2021/12/14 13:13:52;;;;;;;35.70;26.52;;;8.50;99.90;;;;;;5094898;28;20092;-54
2021/12/14 13:16:20;;;;;;;32.50;24.55;;;8.60;99.90;;;;;;5094631;28;20097;-52
2021/12/14 13:19:02;;;;;;;35.30;25.58;;;8.30;99.90;;;;;;5094686;28;20028;-53
2021/12/14 13:21:38;;;;;;;40.50;27.42;;;8.20;99.90;;;;;;5094890;28;20076;-56
2021/12/14 13:24:14;;;;;;;52.60;36.17;;;8.10;99.90;;;;;;5094573;28;20028;-56
2021/12/14 13:27:05;;;;;;;32.13;23.95;;;8.10;99.90;;;;;;5094561;28;20024;-52
2021/12/14 13:29:36;;;;;;;30.92;23.55;;;8.30;99.90;;;;;;5093714;28;20040;-51
2021/12/14 13:32:33;;;;;;;34.28;27.00;;;7.80;99.90;;;;;;5094856;28;20028;-54
2021/12/14 13:35:05;;;;;;;41.63;29.88;;;7.70;99.90;;;;;;5012259;28;20049;-50
2021/12/14 13:37:31;;;;;;;45.97;33.35;;;7.70;99.90;;;;;;5012300;28;20508;-51
2021/12/14 13:39:57;;;;;;;38.08;28.67;;;7.90;99.90;;;;;;5012327;28;20478;-56
2021/12/14 13:42:40;;;;;;;36.45;28.65;;;7.90;99.90;;;;;;4963341;28;20367;-52
2021/12/14 13:45:10;;;;;;;71.18;49.55;;;7.90;99.90;;;;;;5012153;28;20500;-54
2021/12/14 13:47:36;;;;;;;182.65;143.23;;;7.70;99.90;;;;;;5011270;28;20026;-50
2021/12/14 13:50:06;;;;;;;208.25;182.63;;;7.50;99.90;;;;;;5020048;28;20496;-55
2021/12/14 13:52:31;;;;;;;41.47;30.27;;;7.70;99.90;;;;;;4983150;28;20033;-52